EGSH

Norwich International

Airport
ICAO code
EGSH
Summary
ICAO Region
EUR
ICAO Territory
Location

Norwich, Norfolk, England,

Elevation
117 ft
Coordinates
52° 40' 33" N , 1° 16' 58" E
KCC
Cfb
Metar
Observation
EGSH 151320Z 23007KT 200V260 CAVOK 27/12 Q1002 NOSIG
Station
Norwich Weather Centre
Date/Time
2022-08-15 13:20:00
Wind direction
230°
Wind speed
07 kts
Lowest cloud amount
clouds and visibility OK
Temperature
27°C
Dew point
12°C
Humidity
39%
QNH
1002 hPa
Weather condition
n/a

Description

Norwich International Airport (IATA: NWI), also known as Norwich Airport, is an airport in the City of Norwich within Norfolk, England 2.8 nm north of the city centre and on the edge of the city's suburbs.

Climatology

Temperate Marine climate/Oceanic climate (Köppen climate classification Cfb) - Moderately cool summer and comparatively warm winter.

Runways

Designator Length Width Surface Rops
4/22 1266 45 ASP Yes/Yes
9/27 1841 45 ASP Yes/Yes

Airport map

Aerial View

Airport accidents

SKYbrary Partners:

Safety knowledge contributed by: